This is the latest recevied weather packets stored in our database for station/object N5ZPR. If no packets are shown the sender has not sent any weather packets the latest 10 day(s).
| Time | Temp. | Humidity | Pressure | Rain* | Wind** | Luminosity | Snow |
|---|---|---|---|---|---|---|---|
| 1777142404 | 29.44° C | 70% | 1004.1 hPa | 0 mm | - | - | - |
| 1777139404 | 28.89° C | 71% | 1005 hPa | 0 mm | - | - | - |
| 1777137004 | 28.33° C | 72% | 1005.3 hPa | 0 mm | - | - | - |
| 1777134603 | 26.67° C | 77% | 1005.3 hPa | 0 mm | - | - | - |
| 1777133404 | 26.67° C | 80% | 1005.3 hPa | 0 mm | - | - | - |
| 1777131604 | 26.11° C | 81% | 1005.3 hPa | 0 mm | - | - | - |
| 1777131003 | 25.56° C | 83% | 1005.3 hPa | 0 mm | - | - | - |
| 1777127404 | 24.44° C | 88% | 1005.3 hPa | 0 mm | - | - | - |
| 1777124404 | 23.33° C | 91% | 1005.2 hPa | 0 mm | - | - | - |
| 1777117204 | 22.78° C | 93% | 1003.9 hPa | 0 mm | - | - | - |
| 1777110004 | 22.78° C | 92% | 1003.4 hPa | 0 mm | - | - | - |
| 1777106404 | 21.11° C | 90% | 1003.4 hPa | 0 mm | - | - | - |
| 1777105203 | 21.11° C | 85% | 1003.7 hPa | 0 mm | - | - | - |
| 1777098004 | 21.11° C | 79% | 1003.8 hPa | 0 mm | - | - | - |
| 1777094403 | 21.11° C | 71% | 1003.3 hPa | 0 mm | - | - | - |
| 1777093803 | 20.56° C | 75% | 1003.2 hPa | 0 mm | - | - | - |
| 1777093203 | 20° C | 77% | 1003.3 hPa | 0 mm | - | - | - |
| 1777084204 | 23.33° C | 61% | 1002.1 hPa | 0 mm | - | - | - |
| 1777081203 | 26.11° C | 54% | 1001.2 hPa | 0 mm | - | - | - |
| 1777080004 | 27.22° C | 52% | 1001.2 hPa | 0 mm | - | - | - |
| 1777075804 | 31.11° C | 43% | 1001.4 hPa | 0 mm | - | - | - |
| 1777074004 | 32.22° C | 40% | 1001 hPa | 0 mm | - | - | - |
| 1777072204 | 32.78° C | 42% | 1001 hPa | 0 mm | - | - | - |
| 1777070403 | 32.78° C | 45% | 1001 hPa | 0 mm | - | - | - |
| 1777069804 | 32.78° C | 46% | 1001 hPa | 0 mm | - | - | - |
* Rain latest hour (hover to see other rain measurements)
** Current wind speed in m/s (hover to see current wind gust speed)